createdAt,value
2019-02-14T00:01:08.782Z,29.73
2019-02-14T00:03:38.283Z,26.27
2019-02-14T00:06:07.766Z,24.50
2019-02-14T00:08:37.251Z,22.90
2019-02-14T00:11:06.747Z,22.33
2019-02-14T00:13:36.294Z,25.33
2019-02-14T00:16:05.749Z,30.13
2019-02-14T00:18:35.173Z,31.63
2019-02-14T00:21:04.731Z,33.43
2019-02-14T00:23:34.205Z,26.57
2019-02-14T00:26:03.698Z,17.53
2019-02-14T00:28:33.327Z,21.63
2019-02-14T00:31:02.838Z,18.17
2019-02-14T00:33:32.375Z,19.87
2019-02-14T00:36:01.855Z,19.43
2019-02-14T00:38:31.325Z,30.50
2019-02-14T00:41:00.837Z,31.40
2019-02-14T00:43:30.380Z,27.83
2019-02-14T00:45:59.856Z,23.90
2019-02-14T00:48:29.289Z,22.10
2019-02-14T00:50:58.785Z,24.73
2019-02-14T00:53:28.289Z,20.07
2019-02-14T00:55:57.739Z,25.33
2019-02-14T00:58:27.224Z,25.23
2019-02-14T01:00:56.735Z,24.53
2019-02-14T01:03:26.207Z,29.63
2019-02-14T01:05:55.669Z,20.40
2019-02-14T01:08:25.162Z,23.73
2019-02-14T01:10:54.657Z,20.87
2019-02-14T01:13:24.489Z,22.20
2019-02-14T01:15:54.038Z,23.23
2019-02-14T01:18:23.473Z,23.27
2019-02-14T01:20:52.968Z,25.50
2019-02-14T01:23:22.471Z,22.90
2019-02-14T01:26:10.996Z,26.37
2019-02-14T01:28:40.499Z,23.43
2019-02-14T01:31:09.967Z,23.53
2019-02-14T01:33:39.458Z,22.40
2019-02-14T01:36:08.927Z,26.27
2019-02-14T01:38:38.392Z,22.90
2019-02-14T01:41:07.938Z,24.13
2019-02-14T01:43:37.382Z,26.97
2019-02-14T01:46:06.895Z,29.37
2019-02-14T01:48:36.433Z,27.90
2019-02-14T01:51:05.906Z,28.13
2019-02-14T01:53:35.403Z,26.73
2019-02-14T01:56:04.908Z,24.37
2019-02-14T01:58:34.343Z,20.60
2019-02-14T02:01:03.830Z,24.50
2019-02-14T02:03:33.306Z,21.53
2019-02-14T02:06:02.752Z,20.10
2019-02-14T02:08:32.315Z,20.73
2019-02-14T02:11:01.864Z,22.83
2019-02-14T02:13:31.419Z,21.77
2019-02-14T02:16:00.874Z,21.80
2019-02-14T02:18:30.937Z,23.20
2019-02-14T02:21:00.424Z,30.47
2019-02-14T02:23:29.877Z,27.70
2019-02-14T02:25:59.337Z,26.70
2019-02-14T02:28:28.825Z,27.07
2019-02-14T02:30:58.423Z,24.00
2019-02-14T02:33:27.885Z,20.90
2019-02-14T02:36:00.493Z,21.60
2019-02-14T02:38:28.494Z,22.10
2019-02-14T02:40:57.933Z,23.90
2019-02-14T02:43:27.432Z,22.67
2019-02-14T02:45:56.921Z,23.83
2019-02-14T02:48:26.424Z,22.63
2019-02-14T02:50:55.926Z,18.80
2019-02-14T02:53:25.406Z,18.23
2019-02-14T02:55:54.897Z,17.43
2019-02-14T02:58:24.400Z,17.00
2019-02-14T03:00:53.879Z,16.63
2019-02-14T03:03:23.322Z,16.30
2019-02-14T03:05:52.861Z,16.83
2019-02-14T03:08:22.344Z,15.37
2019-02-14T03:10:51.836Z,19.23
2019-02-14T03:13:21.327Z,18.87
2019-02-14T03:15:50.814Z,17.87
2019-02-14T03:18:20.330Z,16.53
2019-02-14T03:20:49.774Z,17.80
2019-02-14T03:23:19.307Z,20.20
2019-02-14T03:25:48.790Z,17.73
2019-02-14T03:28:18.254Z,19.00
2019-02-14T03:30:47.772Z,17.33
2019-02-14T03:33:17.311Z,19.30
2019-02-14T03:35:46.809Z,19.40
2019-02-14T03:38:16.273Z,18.60
2019-02-14T03:40:45.805Z,17.43
2019-02-14T03:43:15.268Z,19.30
2019-02-14T03:45:44.756Z,20.30
2019-02-14T03:48:14.259Z,16.53
2019-02-14T03:50:43.757Z,19.73
2019-02-14T03:53:13.251Z,16.93
2019-02-14T03:55:42.732Z,19.10
2019-02-14T03:58:12.185Z,17.43
2019-02-14T04:00:41.684Z,16.30
2019-02-14T04:03:11.163Z,17.20
2019-02-14T04:05:40.640Z,16.67
2019-02-14T04:08:10.164Z,16.57
2019-02-14T04:10:39.623Z,15.40
2019-02-14T04:13:09.119Z,15.67
2019-02-14T04:15:38.636Z,17.33
2019-02-14T04:18:08.122Z,15.70
2019-02-14T04:20:37.595Z,18.43
2019-02-14T04:23:07.120Z,15.40
2019-02-14T04:25:36.598Z,15.57
2019-02-14T04:28:06.056Z,20.53
2019-02-14T04:30:35.564Z,17.07
2019-02-14T04:33:05.054Z,17.80
2019-02-14T04:35:34.516Z,16.13
2019-02-14T04:38:04.009Z,17.70
2019-02-14T04:40:33.910Z,17.60
2019-02-14T04:43:03.457Z,18.90
2019-02-14T04:45:32.929Z,17.87
2019-02-14T04:48:02.413Z,16.07
2019-02-14T04:50:31.891Z,16.90
2019-02-14T04:53:01.338Z,18.27
2019-02-14T04:55:30.864Z,17.13
2019-02-14T04:58:00.314Z,19.63
2019-02-14T05:00:29.817Z,20.00
2019-02-14T05:02:59.324Z,15.90
2019-02-14T05:05:28.795Z,16.97
2019-02-14T05:07:58.242Z,19.43
2019-02-14T05:10:27.793Z,16.30
2019-02-14T05:12:57.268Z,14.10
2019-02-14T05:15:26.732Z,13.73
2019-02-14T05:17:56.291Z,17.03
2019-02-14T05:20:25.764Z,19.57
2019-02-14T05:22:55.227Z,21.07
2019-02-14T05:25:24.747Z,26.80
2019-02-14T05:27:54.270Z,24.50
2019-02-14T05:30:23.741Z,22.90
2019-02-14T05:32:53.240Z,21.97
2019-02-14T05:35:22.699Z,19.90
2019-02-14T05:37:52.217Z,24.73
2019-02-14T05:40:21.691Z,27.23
2019-02-14T05:42:51.207Z,22.07
2019-02-14T05:45:20.690Z,19.37
2019-02-14T05:47:50.434Z,20.90
2019-02-14T05:50:19.790Z,21.50
2019-02-14T05:52:49.309Z,21.87
2019-02-14T05:55:18.759Z,22.23
2019-02-14T05:57:48.203Z,23.17
2019-02-14T06:00:19.501Z,21.03
2019-02-14T06:02:48.990Z,20.87
2019-02-14T06:05:18.442Z,17.03
2019-02-14T06:07:47.922Z,18.03
2019-02-14T06:10:17.351Z,18.67
2019-02-14T06:12:46.833Z,20.17
2019-02-14T06:15:16.340Z,25.67
2019-02-14T06:17:45.804Z,19.30
2019-02-14T06:20:15.322Z,18.90
2019-02-14T06:22:44.821Z,21.27
2019-02-14T06:25:14.314Z,19.23
2019-02-14T06:27:43.819Z,17.00
2019-02-14T06:30:13.825Z,19.67
2019-02-14T06:32:43.325Z,22.57
2019-02-14T06:35:12.905Z,23.33
2019-02-14T06:37:42.383Z,21.37
2019-02-14T06:40:12.300Z,25.93
2019-02-14T06:42:41.751Z,29.50
2019-02-14T06:45:12.617Z,30.23
2019-02-14T06:47:42.166Z,29.27
2019-02-14T06:50:11.665Z,28.60
2019-02-14T06:52:41.137Z,24.63
2019-02-14T06:55:10.666Z,21.93
2019-02-14T06:57:40.160Z,19.37
2019-02-14T07:00:11.689Z,23.13
2019-02-14T07:02:41.200Z,22.90
2019-02-14T07:05:10.822Z,25.90
2019-02-14T07:07:40.320Z,28.63
2019-02-14T07:10:09.844Z,21.57
2019-02-14T07:12:39.397Z,20.70
2019-02-14T07:15:09.999Z,21.47
2019-02-14T07:17:39.468Z,20.47
2019-02-14T07:20:11.167Z,19.97
2019-02-14T07:22:40.629Z,26.20
2019-02-14T07:25:10.630Z,23.17
2019-02-14T07:27:40.155Z,23.57
2019-02-14T07:30:13.046Z,23.20
2019-02-14T07:32:42.523Z,22.87
2019-02-14T07:35:12.045Z,22.30
2019-02-14T07:37:41.551Z,21.53
2019-02-14T07:40:12.312Z,23.17
2019-02-14T07:42:41.778Z,24.77
2019-02-14T07:45:12.444Z,29.37
2019-02-14T07:47:41.889Z,22.87
2019-02-14T07:50:11.609Z,30.07
2019-02-14T07:52:41.085Z,21.33
2019-02-14T07:55:10.712Z,18.57
2019-02-14T07:57:40.521Z,17.27
2019-02-14T08:00:12.120Z,16.57
2019-02-14T08:02:41.645Z,20.10
2019-02-14T08:05:11.262Z,17.20
2019-02-14T08:07:40.764Z,19.10
2019-02-14T08:10:11.545Z,13.77
2019-02-14T08:12:41.033Z,14.40
2019-02-14T08:15:12.700Z,13.90
2019-02-14T08:17:42.223Z,13.40
2019-02-14T08:20:12.018Z,13.43
2019-02-14T08:22:41.818Z,16.23
2019-02-14T08:25:11.916Z,13.73
2019-02-14T08:27:41.450Z,14.20
2019-02-14T08:30:13.029Z,20.53
2019-02-14T08:32:42.537Z,18.53
2019-02-14T08:35:12.010Z,64.87
2019-02-14T08:37:45.406Z,157.90
2019-02-14T08:40:15.712Z,24.07
2019-02-14T08:42:45.171Z,135.23
2019-02-14T08:45:14.641Z,54.47
2019-02-14T08:47:44.538Z,31.43
2019-02-14T08:50:14.102Z,26.07
2019-02-14T08:52:43.569Z,66.47
2019-02-14T08:55:13.093Z,38.40
2019-02-14T08:57:42.611Z,108.77
2019-02-14T09:00:13.179Z,25.43
2019-02-14T09:02:42.734Z,23.70
2019-02-14T09:05:12.198Z,42.93
2019-02-14T09:07:41.653Z,113.00
2019-02-14T09:10:12.594Z,131.47
2019-02-14T09:12:42.119Z,32.60
2019-02-14T09:15:11.790Z,17.17
2019-02-14T09:17:41.309Z,93.80
2019-02-14T09:20:12.034Z,15.60
2019-02-14T09:22:41.491Z,14.83
2019-02-14T09:25:10.993Z,15.13
2019-02-14T09:27:40.486Z,11.40
2019-02-14T09:30:10.142Z,14.87
2019-02-14T09:32:39.719Z,12.27
2019-02-14T09:35:09.355Z,10.03
2019-02-14T09:37:38.880Z,14.83
2019-02-14T09:40:09.709Z,13.87
2019-02-14T09:42:39.269Z,15.53
2019-02-14T09:45:09.925Z,15.33
2019-02-14T09:47:39.428Z,15.73
2019-02-14T09:50:10.208Z,21.00
2019-02-14T09:52:39.812Z,18.73
2019-02-14T09:55:10.122Z,26.93
2019-02-14T09:57:39.677Z,25.23
2019-02-14T10:00:12.014Z,25.07
2019-02-14T10:02:41.575Z,36.83
2019-02-14T10:05:11.381Z,30.80
2019-02-14T10:07:40.943Z,34.07
2019-02-14T10:10:13.406Z,34.30
2019-02-14T10:12:42.956Z,35.67
2019-02-14T10:15:12.606Z,38.60
2019-02-14T10:17:42.106Z,41.13
2019-02-14T10:20:13.690Z,35.80
2019-02-14T10:22:43.230Z,41.70
2019-02-14T10:25:12.997Z,36.97
2019-02-14T10:27:42.519Z,39.33
2019-02-14T10:30:14.654Z,40.17
2019-02-14T10:32:44.147Z,35.77
2019-02-14T10:35:13.693Z,41.17
2019-02-14T10:37:43.284Z,40.80
2019-02-14T10:40:13.573Z,51.70
2019-02-14T10:42:43.067Z,40.77
2019-02-14T10:45:14.514Z,40.20
2019-02-14T10:47:44.059Z,40.07
2019-02-14T10:50:13.702Z,41.47
2019-02-14T10:52:43.294Z,42.73
2019-02-14T10:55:13.395Z,74.97
2019-02-14T10:57:42.865Z,41.07
2019-02-14T11:00:16.628Z,98.03
2019-02-14T11:02:46.223Z,53.30
2019-02-14T11:05:16.597Z,46.67
2019-02-14T11:07:46.154Z,54.67
2019-02-14T11:10:15.833Z,42.40
2019-02-14T11:12:45.352Z,40.53
2019-02-14T11:15:16.719Z,42.30
2019-02-14T11:17:46.161Z,46.07
2019-02-14T11:20:17.770Z,44.27
2019-02-14T11:22:48.740Z,47.37
2019-02-14T11:25:21.244Z,40.93
2019-02-14T11:27:50.649Z,43.23
2019-02-14T11:30:20.118Z,42.03
2019-02-14T11:32:49.635Z,43.87
2019-02-14T11:35:19.110Z,48.93
2019-02-14T11:37:51.692Z,43.50
2019-02-14T11:40:21.161Z,48.07
2019-02-14T11:42:50.720Z,43.63
2019-02-14T11:45:20.760Z,45.67
2019-02-14T11:47:50.270Z,44.63
2019-02-14T11:50:19.767Z,46.90
2019-02-14T11:52:49.261Z,45.10
2019-02-14T11:55:19.182Z,45.17
2019-02-14T11:57:48.633Z,47.93
2019-02-14T12:00:21.069Z,46.20
2019-02-14T12:02:55.601Z,47.63
2019-02-14T12:05:21.839Z,43.80
2019-02-14T12:07:51.308Z,44.03
2019-02-14T12:10:20.804Z,41.30
2019-02-14T12:12:50.309Z,41.27
2019-02-14T12:15:19.880Z,42.43
2019-02-14T12:17:49.341Z,44.07
2019-02-14T12:20:18.856Z,42.23
2019-02-14T12:22:48.393Z,46.03
2019-02-14T12:25:18.015Z,40.07
2019-02-14T12:27:47.481Z,37.50
2019-02-14T12:30:16.964Z,45.00
2019-02-14T12:32:46.482Z,39.27
2019-02-14T12:35:15.937Z,44.83
2019-02-14T12:37:45.410Z,39.30
2019-02-14T12:40:15.054Z,39.13
2019-02-14T12:42:44.534Z,43.47
2019-02-14T12:45:21.640Z,40.23
2019-02-14T12:47:46.988Z,43.53
2019-02-14T12:50:16.510Z,43.20
2019-02-14T12:52:45.978Z,41.10
2019-02-14T12:55:15.504Z,40.27
2019-02-14T12:57:44.997Z,47.50
2019-02-14T13:00:17.149Z,45.60
2019-02-14T13:02:46.668Z,47.23
2019-02-14T13:05:16.180Z,41.00
2019-02-14T13:07:45.685Z,42.07
2019-02-14T13:10:15.576Z,42.40
2019-02-14T13:12:45.048Z,42.93
2019-02-14T13:15:16.809Z,44.43
2019-02-14T13:17:46.457Z,40.73
2019-02-14T13:20:15.961Z,45.87
2019-02-14T13:22:45.449Z,42.87
2019-02-14T13:25:14.945Z,43.57
2019-02-14T13:27:44.423Z,51.47
2019-02-14T13:30:16.964Z,47.00
2019-02-14T13:32:46.500Z,46.57
2019-02-14T13:35:15.981Z,41.40
2019-02-14T13:37:45.427Z,52.87
2019-02-14T13:40:14.951Z,50.10
2019-02-14T13:42:44.439Z,47.53
2019-02-14T13:45:15.363Z,46.53
2019-02-14T13:47:44.835Z,42.97
2019-02-14T13:50:16.023Z,44.00
2019-02-14T13:52:45.513Z,39.10
2019-02-14T13:55:15.256Z,44.30
2019-02-14T13:57:44.724Z,46.63
2019-02-14T14:00:19.644Z,42.70
2019-02-14T14:02:49.142Z,44.37
2019-02-14T14:05:19.306Z,42.03
2019-02-14T14:07:48.725Z,47.13
2019-02-14T14:10:18.246Z,44.97
2019-02-14T14:12:47.729Z,41.30
2019-02-14T14:15:17.260Z,44.63
2019-02-14T14:17:46.725Z,47.63
2019-02-14T14:20:16.254Z,44.80
2019-02-14T14:22:45.734Z,43.77
2019-02-14T14:25:15.237Z,43.67
2019-02-14T14:27:44.700Z,42.90
2019-02-14T14:30:14.303Z,48.63
2019-02-14T14:32:43.862Z,47.27
2019-02-14T14:35:13.305Z,47.43
2019-02-14T14:37:42.798Z,41.83
2019-02-14T14:40:12.685Z,45.57
2019-02-14T14:43:03.902Z,49.10
2019-02-14T14:45:57.056Z,42.77
2019-02-14T14:48:29.084Z,42.53
2019-02-14T14:50:58.557Z,45.37
2019-02-14T14:53:28.050Z,42.83
2019-02-14T14:55:57.609Z,46.90
2019-02-14T14:58:27.106Z,43.67
2019-02-14T15:00:56.646Z,46.90
2019-02-14T15:03:26.138Z,47.10
2019-02-14T15:05:55.611Z,46.07
2019-02-14T15:08:25.143Z,43.47
2019-02-14T15:10:54.609Z,46.83
2019-02-14T15:13:24.105Z,47.03
2019-02-14T15:15:53.694Z,77.27
2019-02-14T15:18:23.150Z,43.37
2019-02-14T15:20:52.719Z,45.93
2019-02-14T15:23:22.207Z,42.27
2019-02-14T15:25:51.675Z,42.10
2019-02-14T15:28:21.194Z,49.60
2019-02-14T15:30:50.650Z,43.60
2019-02-14T15:33:20.144Z,44.93
2019-02-14T15:35:49.638Z,46.07
2019-02-14T15:38:19.120Z,47.10
2019-02-14T15:40:48.630Z,44.63
2019-02-14T15:43:18.213Z,46.93
2019-02-14T15:45:47.722Z,50.40
2019-02-14T15:48:17.231Z,44.10
2019-02-14T15:50:46.745Z,46.70
2019-02-14T15:53:17.432Z,46.60
2019-02-14T15:55:47.419Z,42.33
2019-02-14T15:58:16.923Z,39.67
2019-02-14T16:00:46.396Z,47.87
2019-02-14T16:03:17.846Z,44.60
2019-02-14T16:05:47.040Z,194.23
2019-02-14T16:08:16.528Z,56.47
2019-02-14T16:10:46.016Z,42.90
2019-02-14T16:13:15.498Z,44.27
2019-02-14T16:15:45.081Z,46.30
2019-02-14T16:18:14.541Z,50.10
2019-02-14T16:20:44.336Z,44.87
2019-02-14T16:23:14.317Z,50.53
2019-02-14T16:25:43.837Z,59.48
2019-02-14T16:28:13.700Z,56.47
2019-02-14T16:30:43.583Z,55.23
2019-02-14T16:33:13.022Z,84.40
2019-02-14T16:35:42.806Z,75.83
2019-02-14T16:38:13.960Z,56.93
2019-02-14T16:40:43.475Z,51.27
2019-02-14T16:43:12.973Z,54.33
2019-02-14T16:45:42.513Z,62.33
2019-02-14T16:48:11.982Z,68.63
2019-02-14T16:50:41.462Z,54.07
2019-02-14T16:53:10.963Z,49.23
2019-02-14T16:55:40.476Z,57.13
2019-02-14T16:58:09.982Z,59.53
2019-02-14T17:00:39.482Z,52.43
2019-02-14T17:03:08.933Z,47.87
2019-02-14T17:05:38.417Z,48.57
2019-02-14T17:08:07.934Z,43.80
2019-02-14T17:10:37.432Z,40.33
2019-02-14T17:13:06.887Z,48.93
2019-02-14T17:15:36.441Z,51.77
2019-02-14T17:18:05.922Z,61.50
2019-02-14T17:20:35.393Z,60.27
2019-02-14T17:23:04.877Z,58.67
2019-02-14T17:25:34.415Z,61.40
2019-02-14T17:28:03.886Z,73.80
2019-02-14T17:30:33.414Z,62.83
2019-02-14T17:33:02.942Z,64.30
2019-02-14T17:35:32.455Z,54.13
2019-02-14T17:38:02.048Z,63.97
2019-02-14T17:40:31.814Z,60.83
2019-02-14T17:43:01.429Z,63.60
2019-02-14T17:45:31.293Z,59.67
2019-02-14T17:48:00.911Z,63.33
2019-02-14T17:50:36.917Z,69.73
2019-02-14T17:53:07.009Z,64.17
2019-02-14T17:55:37.085Z,57.63
2019-02-14T17:58:07.191Z,54.87
2019-02-14T18:00:37.416Z,65.47
2019-02-14T18:03:07.618Z,61.20
2019-02-14T18:05:37.733Z,64.40
2019-02-14T18:08:07.843Z,59.37
2019-02-14T18:10:37.788Z,61.83
2019-02-14T18:13:07.971Z,57.20
2019-02-14T18:15:39.219Z,59.13
2019-02-14T18:18:09.442Z,64.67
2019-02-14T18:20:39.512Z,62.17
2019-02-14T18:23:09.691Z,63.73
2019-02-14T18:25:39.973Z,61.07
2019-02-14T18:28:11.656Z,67.07
2019-02-14T18:30:41.685Z,64.63
2019-02-14T18:33:11.923Z,66.73
2019-02-14T18:35:42.172Z,67.57
2019-02-14T18:38:12.091Z,70.50
2019-02-14T18:40:42.242Z,70.50
2019-02-14T18:43:12.326Z,70.20
2019-02-14T18:45:42.490Z,70.80
2019-02-14T18:48:12.503Z,71.40
2019-02-14T18:50:42.557Z,71.27
2019-02-14T18:53:12.457Z,68.93
2019-02-14T18:55:43.187Z,75.93
2019-02-14T18:58:13.256Z,71.77
2019-02-14T19:00:43.331Z,67.83
2019-02-14T19:03:13.383Z,69.27
2019-02-14T19:05:43.693Z,74.37
2019-02-14T19:08:13.927Z,72.77
2019-02-14T19:10:44.249Z,63.43
2019-02-14T19:13:14.471Z,62.67
2019-02-14T19:15:44.704Z,65.43
2019-02-14T19:18:15.148Z,63.40
2019-02-14T19:20:45.272Z,59.33
2019-02-14T19:23:23.446Z,67.33
2019-02-14T19:25:47.510Z,59.23
2019-02-14T19:28:17.733Z,58.97
2019-02-14T19:30:47.862Z,58.67
2019-02-14T19:33:18.099Z,63.07
2019-02-14T19:35:48.381Z,58.90
2019-02-14T19:38:18.571Z,59.73
2019-02-14T19:40:48.863Z,55.93
2019-02-14T19:43:19.402Z,51.20
2019-02-14T19:45:49.903Z,55.83
2019-02-14T19:48:20.047Z,54.37
2019-02-14T19:50:50.201Z,54.23
2019-02-14T19:53:20.279Z,51.37
2019-02-14T19:55:50.461Z,50.23
2019-02-14T19:58:20.509Z,53.53
2019-02-14T20:00:50.547Z,48.47
2019-02-14T20:03:20.803Z,52.57
2019-02-14T20:05:51.035Z,53.10
2019-02-14T20:08:21.164Z,49.83
2019-02-14T20:10:51.274Z,51.23
2019-02-14T20:13:21.480Z,52.23
2019-02-14T20:15:51.739Z,47.00
2019-02-14T20:18:21.963Z,48.20
2019-02-14T20:20:52.041Z,48.47
2019-02-14T20:23:23.222Z,52.43
2019-02-14T20:25:53.427Z,47.10
2019-02-14T20:28:23.557Z,48.70
2019-02-14T20:30:53.747Z,48.70
2019-02-14T20:33:23.935Z,51.90
2019-02-14T20:35:53.927Z,47.50
2019-02-14T20:38:24.050Z,46.97
2019-02-14T20:40:54.114Z,48.10
2019-02-14T20:43:23.944Z,42.73
2019-02-14T20:45:53.998Z,48.50
2019-02-14T20:48:23.975Z,47.07
2019-02-14T20:50:53.542Z,52.17
2019-02-14T20:53:23.025Z,46.83
2019-02-14T20:55:52.668Z,42.10
2019-02-14T20:58:22.563Z,45.17
2019-02-14T21:00:52.346Z,45.67
2019-02-14T21:03:21.865Z,48.07
2019-02-14T21:05:51.463Z,49.40
2019-02-14T21:08:21.038Z,50.63
2019-02-14T21:10:50.516Z,45.10
2019-02-14T21:13:20.033Z,53.43
2019-02-14T21:15:49.398Z,53.00
2019-02-14T21:18:18.817Z,49.97
2019-02-14T21:20:48.275Z,47.07
2019-02-14T21:23:17.667Z,51.43
2019-02-14T21:25:47.025Z,54.67
2019-02-14T21:28:16.537Z,57.10
2019-02-14T21:30:45.894Z,52.63
2019-02-14T21:33:15.298Z,54.97
2019-02-14T21:35:44.770Z,51.73
2019-02-14T21:38:14.235Z,46.13
2019-02-14T21:40:43.969Z,47.60
2019-02-14T21:43:13.466Z,39.37
2019-02-14T21:45:44.385Z,40.53
2019-02-14T21:48:13.927Z,44.97
2019-02-14T21:50:43.397Z,44.03
2019-02-14T21:53:12.821Z,44.47
2019-02-14T21:55:42.297Z,47.77
2019-02-14T21:58:11.981Z,42.97
2019-02-14T22:00:41.383Z,41.80
2019-02-14T22:03:10.778Z,39.47
2019-02-14T22:05:40.384Z,40.47
2019-02-14T22:08:09.857Z,40.50
2019-02-14T22:10:39.295Z,39.23
2019-02-14T22:13:08.831Z,41.33
2019-02-14T22:15:38.256Z,40.13
2019-02-14T22:18:07.703Z,45.43
2019-02-14T22:20:37.205Z,41.93
2019-02-14T22:23:06.619Z,46.73
2019-02-14T22:25:36.001Z,43.30
2019-02-14T22:28:05.472Z,42.90
2019-02-14T22:30:34.904Z,42.60
2019-02-14T22:33:04.250Z,37.67
2019-02-14T22:35:33.691Z,33.97
2019-02-14T22:38:03.716Z,31.60
2019-02-14T22:40:33.967Z,33.27
2019-02-14T22:43:03.449Z,33.33
2019-02-14T22:45:32.849Z,35.10
2019-02-14T22:48:02.210Z,32.53
2019-02-14T22:50:31.693Z,34.70
2019-02-14T22:53:01.137Z,38.70
2019-02-14T22:55:30.542Z,36.60
2019-02-14T22:58:00.022Z,37.30
2019-02-14T23:00:38.330Z,36.57
2019-02-14T23:03:07.986Z,32.30
2019-02-14T23:05:37.543Z,35.80
2019-02-14T23:08:06.930Z,33.80
2019-02-14T23:10:36.417Z,36.43
2019-02-14T23:13:05.872Z,36.00
2019-02-14T23:15:35.328Z,37.67
2019-02-14T23:18:05.370Z,32.63
2019-02-14T23:20:34.999Z,33.57
2019-02-14T23:23:04.431Z,34.07
2019-02-14T23:25:33.873Z,35.47
2019-02-14T23:28:03.263Z,38.87
2019-02-14T23:30:32.670Z,38.97
2019-02-14T23:33:02.218Z,32.37
2019-02-14T23:35:31.649Z,28.13
2019-02-14T23:38:02.337Z,28.30
2019-02-14T23:40:31.819Z,25.43
2019-02-14T23:43:04.682Z,27.20
2019-02-14T23:45:32.411Z,27.03
2019-02-14T23:48:01.843Z,28.50
2019-02-14T23:50:31.222Z,27.37
2019-02-14T23:53:00.639Z,25.67
2019-02-14T23:55:30.094Z,25.27
2019-02-14T23:57:59.536Z,24.67
